Time;durP1;ratioP1;P1;durP2;ratioP2;P2;SDS_P1;SDS_P2;PMS_P1;PMS_P2;Temp;Humidity;BMP_temperature;BMP_pressure;BME280_temperature;BME280_humidity;BME280_pressure;Samples;Min_cycle;Max_cycle;Signal;HPM_P1;HPM_P2
2022/09/26 00:02:16;;;;;;;3.47;2.45;;;10.00;99.90;;;;;;4956519;29;20400;-80
2022/09/26 00:04:42;;;;;;;6.20;2.28;;;10.10;99.90;;;;;;4956146;28;20039;-79
2022/09/26 00:07:07;;;;;;;4.28;2.67;;;10.10;99.90;;;;;;4956185;29;20473;-79
2022/09/26 00:09:33;;;;;;;5.07;2.50;;;10.30;99.90;;;;;;4956105;29;20072;-78
2022/09/26 00:11:58;;;;;;;4.82;2.40;;;10.10;99.90;;;;;;4955716;28;20071;-81
2022/09/26 00:14:26;;;;;;;4.07;2.78;;;10.10;99.90;;;;;;4955852;28;20054;-81
2022/09/26 00:16:52;;;;;;;7.35;2.65;;;10.10;99.90;;;;;;4955977;28;20047;-79
2022/09/26 00:19:18;;;;;;;5.28;2.70;;;10.10;99.90;;;;;;4956077;28;20050;-80
2022/09/26 00:21:44;;;;;;;5.00;2.50;;;10.20;99.90;;;;;;4955819;28;20055;-80
2022/09/26 00:24:10;;;;;;;5.13;2.40;;;10.20;99.90;;;;;;4956061;28;20303;-84
2022/09/26 00:26:37;;;;;;;3.67;2.40;;;10.20;99.90;;;;;;4955859;29;20051;-77
2022/09/26 00:29:08;;;;;;;5.13;2.78;;;10.20;99.90;;;;;;4955918;28;20098;-79
2022/09/26 00:31:37;;;;;;;3.88;2.35;;;10.20;99.90;;;;;;4956172;28;20050;-82
2022/09/26 00:34:03;;;;;;;5.32;2.63;;;10.20;99.90;;;;;;4955785;28;20122;-79
2022/09/26 00:36:30;;;;;;;3.58;2.15;;;10.20;99.90;;;;;;4955633;28;20592;-80
2022/09/26 00:38:55;;;;;;;3.35;2.40;;;10.20;99.90;;;;;;4955650;28;20094;-82
2022/09/26 00:41:21;;;;;;;5.88;2.35;;;10.20;99.90;;;;;;4955595;28;20083;-77
2022/09/26 00:43:53;;;;;;;4.10;2.37;;;10.20;99.90;;;;;;4955177;28;20051;-77
2022/09/26 00:46:36;;;;;;;3.65;2.00;;;10.20;99.90;;;;;;4955369;28;20399;-77
2022/09/26 00:49:21;;;;;;;6.15;2.38;;;10.20;99.90;;;;;;4955012;29;20365;-78
2022/09/26 00:52:11;;;;;;;4.35;2.38;;;10.20;99.90;;;;;;4955318;28;20594;-77
2022/09/26 00:54:40;;;;;;;6.75;2.42;;;10.20;99.90;;;;;;4955944;28;20467;-79
2022/09/26 00:57:16;;;;;;;5.80;2.30;;;10.20;99.90;;;;;;4955498;28;20043;-78
2022/09/26 00:59:49;;;;;;;5.57;2.80;;;10.20;99.90;;;;;;4955723;28;20062;-81
2022/09/26 01:02:15;;;;;;;4.55;2.35;;;10.20;99.90;;;;;;4955423;28;20090;-81
2022/09/26 01:04:43;;;;;;;8.68;3.38;;;10.40;99.90;;;;;;4955548;28;20468;-78
2022/09/26 01:07:20;;;;;;;4.30;2.22;;;10.20;99.90;;;;;;4955415;28;20047;-76
2022/09/26 01:09:47;;;;;;;5.00;2.83;;;10.20;99.90;;;;;;4955782;28;20050;-77
2022/09/26 01:12:14;;;;;;;6.80;3.00;;;10.20;99.90;;;;;;4955409;28;20074;-75
2022/09/26 01:14:41;;;;;;;4.38;2.45;;;10.20;99.90;;;;;;4955389;28;20411;-81
2022/09/26 01:17:07;;;;;;;;;;;10.20;99.90;;;;;;4955805;28;20066;-80
2022/09/26 01:19:51;;;;;;;4.68;2.47;;;10.20;99.90;;;;;;4955271;29;20375;-78
2022/09/26 01:22:34;;;;;;;7.18;3.15;;;10.20;99.90;;;;;;4955615;28;20051;-81
2022/09/26 01:25:38;;;;;;;6.20;3.10;;;10.20;99.90;;;;;;4955338;29;20048;-81
2022/09/26 01:28:28;;;;;;;4.22;2.47;;;10.20;99.90;;;;;;4953668;29;20085;-78
2022/09/26 01:31:35;;;;;;;4.15;2.50;;;10.30;99.90;;;;;;4955319;28;20130;-77
2022/09/26 01:34:32;;;;;;;6.63;3.05;;;10.20;99.90;;;;;;4953387;28;20058;-80
2022/09/26 01:37:43;;;;;;;5.22;2.60;;;10.20;99.90;;;;;;4955497;28;20055;-81
2022/09/26 01:40:22;;;;;;;8.15;3.10;;;10.20;99.90;;;;;;4954910;28;20051;-79
2022/09/26 01:43:18;;;;;;;4.57;2.78;;;10.20;99.90;;;;;;4955096;28;20090;-77
2022/09/26 01:46:02;;;;;;;6.30;2.72;;;10.20;99.90;;;;;;4955082;28;20086;-81
2022/09/26 01:48:34;;;;;;;7.95;2.60;;;10.30;99.90;;;;;;4955550;28;20094;-79
2022/09/26 01:51:14;;;;;;;6.07;2.97;;;10.70;99.90;;;;;;4955047;28;20047;-79
2022/09/26 01:53:50;;;;;;;4.30;2.55;;;10.20;99.90;;;;;;4955181;28;20051;-83
2022/09/26 01:56:21;;;;;;;4.95;2.40;;;10.60;99.90;;;;;;4958637;28;20051;-77
2022/09/26 01:58:55;;;;;;;6.10;2.70;;;10.10;99.90;;;;;;4958397;28;20058;-78
2022/09/26 02:01:24;;;;;;;4.05;2.85;;;10.20;99.90;;;;;;4958963;28;20051;-80
2022/09/26 02:03:56;;;;;;;5.00;2.65;;;10.20;99.90;;;;;;4958270;29;20134;-79
2022/09/26 02:06:36;;;;;;;6.15;2.55;;;10.10;99.90;;;;;;4958542;28;20086;-80
2022/09/26 02:09:09;;;;;;;3.72;2.50;;;10.20;99.90;;;;;;4958334;29;20436;-78
2022/09/26 02:11:39;;;;;;;6.72;2.42;;;10.40;99.90;;;;;;4958755;28;20039;-80
2022/09/26 02:14:27;;;;;;;8.15;3.08;;;10.20;99.90;;;;;;4958209;28;20051;-77
2022/09/26 02:17:00;;;;;;;4.35;2.63;;;10.30;99.90;;;;;;4958215;28;20047;-80
2022/09/26 02:19:35;;;;;;;5.85;2.78;;;10.30;99.90;;;;;;4958159;28;20054;-77
2022/09/26 02:22:01;;;;;;;5.13;2.72;;;10.30;99.90;;;;;;4958417;29;20470;-82
2022/09/26 02:24:27;;;;;;;8.90;2.85;;;10.30;99.90;;;;;;4957823;28;20531;-79
2022/09/26 02:26:53;;;;;;;6.78;2.83;;;10.30;99.90;;;;;;4957995;28;20043;-79
2022/09/26 02:29:19;;;;;;;5.30;3.00;;;10.30;99.90;;;;;;4956755;29;20098;-78
2022/09/26 02:31:58;;;;;;;6.40;3.00;;;10.30;99.90;;;;;;4957991;28;20074;-79
2022/09/26 02:34:24;;;;;;;5.82;2.85;;;10.30;99.90;;;;;;4956822;29;20055;-80
2022/09/26 02:36:51;;;;;;;8.85;2.90;;;10.30;99.90;;;;;;4957747;28;20039;-79
2022/09/26 02:39:17;;;;;;;6.18;3.03;;;10.30;99.90;;;;;;4957649;28;20558;-78
2022/09/26 02:42:07;;;;;;;6.78;2.97;;;10.40;99.90;;;;;;4957621;29;20047;-80
2022/09/26 02:44:58;;;;;;;5.60;3.22;;;10.90;99.90;;;;;;4957707;28;20047;-77
2022/09/26 02:47:32;;;;;;;6.70;3.15;;;10.40;99.90;;;;;;4957551;29;20062;-81
2022/09/26 02:50:20;;;;;;;5.78;2.95;;;10.40;99.90;;;;;;4957488;29;20495;-79
2022/09/26 02:52:54;;;;;;;;;;;10.40;99.90;;;;;;4957993;29;20448;-80
2022/09/26 02:55:38;;;;;;;5.55;3.00;;;10.40;99.90;;;;;;4957351;28;19922;-79
2022/09/26 02:58:17;;;;;;;8.50;3.35;;;10.60;99.90;;;;;;4957726;29;20053;-78
2022/09/26 03:00:57;;;;;;;4.75;2.92;;;10.40;99.90;;;;;;4957379;28;20439;-80
2022/09/26 03:03:32;;;;;;;6.13;3.10;;;10.40;99.90;;;;;;4957230;28;20082;-83
2022/09/26 03:05:59;;;;;;;4.50;3.30;;;10.50;99.90;;;;;;4957166;28;20082;-81
2022/09/26 03:08:26;;;;;;;;;;;10.80;99.90;;;;;;4957946;28;20058;-80
2022/09/26 03:10:55;;;;;;;6.05;3.20;;;10.50;99.90;;;;;;4957171;29;19922;-81
2022/09/26 03:13:22;;;;;;;7.95;3.67;;;10.50;99.90;;;;;;4956891;28;20491;-78
2022/09/26 03:15:52;;;;;;;5.47;3.72;;;10.70;99.90;;;;;;4956991;28;20562;-84
2022/09/26 03:18:27;;;;;;;6.80;4.13;;;10.50;99.90;;;;;;4956968;29;20094;-79
2022/09/26 03:20:53;;;;;;;6.85;4.32;;;10.50;99.90;;;;;;4956967;28;20047;-85
2022/09/26 03:23:28;;;;;;;7.63;4.30;;;10.50;99.90;;;;;;4956859;28;20110;-77
2022/09/26 03:26:12;;;;;;;6.72;4.18;;;10.50;99.90;;;;;;4957046;28;20134;-82
2022/09/26 03:28:38;;;;;;;5.35;4.10;;;10.50;99.90;;;;;;4956732;28;20055;-77
2022/09/26 03:31:04;;;;;;;6.45;4.63;;;10.50;99.90;;;;;;4956757;28;20043;-81
2022/09/26 03:33:30;;;;;;;9.13;4.40;;;10.50;99.90;;;;;;4956636;28;20079;-80
2022/09/26 03:35:58;;;;;;;6.82;5.22;;;10.50;99.90;;;;;;4956662;29;20278;-83
2022/09/26 03:38:24;;;;;;;8.65;5.28;;;11.00;99.90;;;;;;4956572;28;20062;-80
2022/09/26 03:40:49;;;;;;;9.43;5.07;;;10.50;99.90;;;;;;4956768;28;20047;-82
2022/09/26 03:43:16;;;;;;;7.75;4.63;;;10.50;99.90;;;;;;4956446;28;20142;-77
2022/09/26 03:45:41;;;;;;;8.25;5.40;;;10.50;99.90;;;;;;4956461;29;20523;-80
2022/09/26 03:48:07;;;;;;;10.00;5.18;;;10.40;99.90;;;;;;4956522;28;20047;-80
2022/09/26 03:50:33;;;;;;;9.07;5.32;;;10.50;99.90;;;;;;4956410;28;20527;-80
2022/09/26 03:52:59;;;;;;;7.40;4.45;;;10.50;99.90;;;;;;4956601;28;20047;-80
2022/09/26 03:55:25;;;;;;;7.57;5.35;;;10.50;99.90;;;;;;4956376;28;20413;-77
2022/09/26 03:57:51;;;;;;;11.57;6.50;;;10.40;99.90;;;;;;4956253;28;20047;-84
2022/09/26 04:00:16;;;;;;;9.52;5.93;;;10.40;99.90;;;;;;4956269;28;20158;-82
2022/09/26 04:02:43;;;;;;;6.82;5.18;;;10.40;99.90;;;;;;4956152;28;20049;-82
2022/09/26 04:05:08;;;;;;;8.70;5.32;;;10.40;99.90;;;;;;4956180;28;20098;-79
2022/09/26 04:07:34;;;;;;;10.82;6.43;;;10.40;99.90;;;;;;4956199;28;20050;-83
2022/09/26 04:09:59;;;;;;;7.30;5.35;;;10.40;99.90;;;;;;4956139;28;20101;-81
2022/09/26 04:12:26;;;;;;;8.77;5.78;;;10.60;99.90;;;;;;4956044;29;20085;-76
2022/09/26 04:14:52;;;;;;;8.52;5.93;;;10.40;99.90;;;;;;4955995;28;20051;-81
2022/09/26 04:17:18;;;;;;;11.73;6.50;;;10.40;99.90;;;;;;4955513;28;20055;-78
2022/09/26 04:19:45;;;;;;;9.93;6.38;;;10.40;99.90;;;;;;4956313;28;20411;-77
2022/09/26 04:22:11;;;;;;;9.65;6.00;;;10.40;99.90;;;;;;4955560;28;20487;-80
2022/09/26 04:24:36;;;;;;;11.52;7.40;;;10.40;99.90;;;;;;4955912;28;20058;-78
2022/09/26 04:27:02;;;;;;;9.07;6.65;;;10.40;99.90;;;;;;4955899;28;20046;-79
2022/09/26 04:29:28;;;;;;;13.93;6.95;;;10.40;99.90;;;;;;4955843;28;20102;-83
2022/09/26 04:31:54;;;;;;;10.52;7.18;;;10.40;99.90;;;;;;4955817;28;20360;-80
2022/09/26 04:34:23;;;;;;;11.23;6.87;;;10.40;99.90;;;;;;4956104;28;20131;-79
2022/09/26 04:36:50;;;;;;;13.48;6.88;;;10.40;99.90;;;;;;4955766;28;20113;-77
2022/09/26 04:39:16;;;;;;;10.77;7.60;;;10.70;99.90;;;;;;4955736;28;20488;-82
2022/09/26 04:41:41;;;;;;;10.75;7.63;;;10.60;99.90;;;;;;4955588;28;20073;-80
2022/09/26 04:44:09;;;;;;;11.57;7.35;;;10.30;99.90;;;;;;4954994;28;20055;-81
2022/09/26 04:46:35;;;;;;;13.15;7.40;;;10.30;99.90;;;;;;4955608;28;20082;-79
2022/09/26 04:49:01;;;;;;;13.90;8.02;;;10.30;99.90;;;;;;4954837;29;20094;-78
2022/09/26 04:51:30;;;;;;;10.82;7.68;;;10.40;99.90;;;;;;4955589;28;20574;-80
2022/09/26 04:53:56;;;;;;;11.82;7.63;;;10.30;99.90;;;;;;4955547;28;20054;-80
2022/09/26 04:56:24;;;;;;;13.37;7.27;;;10.30;99.90;;;;;;4955316;28;20499;-80
2022/09/26 04:58:50;;;;;;;10.90;7.65;;;10.30;99.90;;;;;;4955210;28;20039;-82
2022/09/26 05:01:19;;;;;;;10.80;7.85;;;10.30;99.90;;;;;;4955422;28;20087;-81
2022/09/26 05:03:45;;;;;;;11.48;7.88;;;10.40;99.90;;;;;;4955756;28;20083;-81
2022/09/26 05:06:12;;;;;;;10.85;7.78;;;10.30;99.90;;;;;;4955468;28;20074;-79
2022/09/26 05:08:40;;;;;;;;;;;11.00;99.90;;;;;;4955841;28;20061;-78
2022/09/26 05:11:06;;;;;;;14.35;7.05;;;10.20;99.90;;;;;;4955344;28;19922;-76
2022/09/26 05:13:32;;;;;;;11.70;6.60;;;10.70;99.90;;;;;;4955362;28;20043;-83
2022/09/26 05:15:58;;;;;;;10.43;7.32;;;10.30;99.90;;;;;;4955476;29;20133;-81
2022/09/26 05:18:25;;;;;;;9.93;6.07;;;10.40;99.90;;;;;;4955615;28;20059;-80
2022/09/26 05:20:52;;;;;;;13.13;7.38;;;10.30;99.90;;;;;;4955356;28;20039;-78
2022/09/26 05:26:19;;;;;;;9.90;6.18;;;10.30;99.90;;;;;;4955710;28;20055;-80
2022/09/26 05:28:54;;;;;;;10.15;6.88;;;10.30;99.90;;;;;;4955835;28;20099;-82
2022/09/26 05:31:21;;;;;;;9.75;6.70;;;10.30;99.90;;;;;;4959228;28;20098;-82
2022/09/26 05:33:49;;;;;;;11.43;6.75;;;10.40;99.90;;;;;;4958970;28;20412;-78
2022/09/26 05:36:16;;;;;;;10.80;6.38;;;10.30;99.90;;;;;;4958667;28;20491;-82
2022/09/26 05:38:41;;;;;;;9.10;6.60;;;10.30;99.90;;;;;;4958562;28;20138;-82
2022/09/26 05:41:07;;;;;;;8.50;5.88;;;10.40;99.90;;;;;;4958989;28;20530;-81
2022/09/26 05:43:33;;;;;;;9.48;6.90;;;10.30;99.90;;;;;;4958619;29;20483;-82
2022/09/26 05:46:02;;;;;;;8.95;6.28;;;10.30;99.90;;;;;;4958943;28;20074;-80
2022/09/26 05:48:30;;;;;;;10.70;6.65;;;10.30;99.90;;;;;;4958567;28;20487;-80
2022/09/26 05:50:55;;;;;;;8.07;6.10;;;10.90;99.90;;;;;;4958267;28;20616;-82
2022/09/26 05:53:22;;;;;;;8.32;5.82;;;10.50;99.90;;;;;;4959018;28;20126;-79
2022/09/26 05:55:49;;;;;;;8.07;5.85;;;10.30;99.90;;;;;;4958284;28;20503;-79
2022/09/26 05:58:14;;;;;;;10.77;6.15;;;10.30;99.90;;;;;;4958471;28;20054;-82
2022/09/26 06:00:40;;;;;;;6.90;5.70;;;10.30;99.90;;;;;;4958492;29;20047;-81
2022/09/26 06:03:06;;;;;;;7.68;5.25;;;10.30;99.90;;;;;;4958295;28;20137;-82
2022/09/26 06:05:33;;;;;;;11.30;5.70;;;10.40;99.90;;;;;;4958315;29;20087;-80
2022/09/26 06:08:00;;;;;;;7.78;5.47;;;10.40;99.90;;;;;;4958230;28;20047;-80
2022/09/26 06:10:46;;;;;;;9.30;5.85;;;10.30;99.90;;;;;;4958738;28;20055;-84
2022/09/26 06:13:14;;;;;;;7.72;5.00;;;10.30;99.90;;;;;;4958243;28;20043;-80
2022/09/26 06:15:42;;;;;;;8.63;5.88;;;10.60;99.90;;;;;;4958255;28;20051;-80
2022/09/26 06:18:07;;;;;;;8.23;5.60;;;10.30;99.90;;;;;;4957785;28;20522;-79
2022/09/26 06:20:33;;;;;;;9.55;5.18;;;10.40;99.90;;;;;;4958045;28;20083;-81
2022/09/26 06:23:00;;;;;;;9.02;4.80;;;10.40;99.90;;;;;;4957907;29;20044;-82
2022/09/26 06:25:26;;;;;;;7.00;4.60;;;10.40;99.90;;;;;;4958039;28;20043;-80
2022/09/26 06:27:56;;;;;;;6.82;4.63;;;10.40;99.90;;;;;;4957980;29;20439;-81
2022/09/26 06:30:23;;;;;;;9.85;5.03;;;10.40;99.90;;;;;;4957968;28;20392;-78
2022/09/26 06:32:52;;;;;;;6.55;4.55;;;10.40;99.90;;;;;;4958295;28;20579;-81
2022/09/26 06:35:20;;;;;;;5.43;4.35;;;10.40;99.90;;;;;;4957819;28;20047;-80
2022/09/26 06:37:45;;;;;;;9.13;4.60;;;10.40;99.90;;;;;;4958049;28;20043;-77
2022/09/26 06:40:11;;;;;;;7.53;3.90;;;10.40;99.90;;;;;;4957394;28;20055;-79
2022/09/26 06:42:38;;;;;;;9.05;4.57;;;10.30;99.90;;;;;;4957673;28;20090;-81
2022/09/26 06:45:08;;;;;;;9.15;4.38;;;10.40;99.90;;;;;;4957590;28;20047;-81
2022/09/26 06:47:35;;;;;;;8.70;3.95;;;10.40;99.90;;;;;;4957552;28;20134;-78
2022/09/26 06:50:01;;;;;;;8.50;4.00;;;10.30;99.90;;;;;;4957922;28;20404;-78
2022/09/26 06:52:33;;;;;;;7.40;4.00;;;10.40;99.90;;;;;;4957881;28;20044;-80
2022/09/26 06:54:59;;;;;;;7.75;4.32;;;10.40;99.90;;;;;;4956367;29;20506;-80
2022/09/26 06:57:25;;;;;;;4.50;3.70;;;10.40;99.90;;;;;;4957202;28;20448;-78
2022/09/26 06:59:50;;;;;;;6.55;4.25;;;10.40;99.90;;;;;;4957280;28;20047;-83
2022/09/26 07:02:16;;;;;;;5.82;3.47;;;10.40;99.90;;;;;;4957284;28;20074;-77
2022/09/26 07:04:42;;;;;;;7.38;3.45;;;10.40;99.90;;;;;;4957301;29;20087;-81
2022/09/26 07:07:08;;;;;;;7.05;3.60;;;11.00;99.90;;;;;;4957281;28;20399;-80
2022/09/26 07:09:33;;;;;;;4.82;2.60;;;10.40;99.90;;;;;;4957217;28;20484;-77
2022/09/26 07:11:59;;;;;;;5.97;3.25;;;10.50;99.90;;;;;;4957325;28;20054;-80
2022/09/26 07:14:25;;;;;;;4.13;2.70;;;10.50;99.90;;;;;;4957065;28;20130;-78
2022/09/26 07:16:50;;;;;;;7.50;3.20;;;10.50;99.90;;;;;;4957038;29;20055;-80
2022/09/26 07:19:17;;;;;;;5.28;2.67;;;10.50;99.90;;;;;;4956982;28;20039;-81
2022/09/26 07:21:43;;;;;;;5.28;3.03;;;10.50;99.90;;;;;;4956942;28;20044;-78
2022/09/26 07:24:12;;;;;;;6.80;3.00;;;10.60;99.90;;;;;;4956832;29;20182;-83
2022/09/26 07:26:39;;;;;;;4.85;3.03;;;10.70;99.90;;;;;;4956822;28;20122;-77
2022/09/26 07:29:06;;;;;;;4.97;2.90;;;10.60;99.90;;;;;;4956616;28;20055;-80
2022/09/26 07:31:31;;;;;;;4.20;2.73;;;10.70;99.90;;;;;;4955873;28;20082;-79
2022/09/26 07:33:57;;;;;;;5.28;2.97;;;10.70;99.90;;;;;;4956667;29;20137;-81
2022/09/26 07:36:22;;;;;;;5.53;2.85;;;10.70;99.90;;;;;;4957012;28;20182;-78
2022/09/26 07:38:49;;;;;;;6.28;2.88;;;10.90;99.90;;;;;;4955633;29;20039;-80
2022/09/26 07:41:15;;;;;;;4.57;2.65;;;10.80;99.90;;;;;;4956627;28;20440;-80
2022/09/26 07:43:40;;;;;;;7.60;3.40;;;10.80;99.90;;;;;;4956450;28;20057;-76
2022/09/26 07:51:35;;;;;;;5.65;3.00;;;10.80;99.90;;;;;;4955985;28;20051;-79
2022/09/26 07:54:01;;;;;;;5.28;3.10;;;10.90;99.90;;;;;;4956340;28;20058;-80
2022/09/26 07:56:26;;;;;;;4.53;2.70;;;10.90;99.90;;;;;;4956766;29;20050;-82
2022/09/26 07:58:54;;;;;;;4.97;2.88;;;10.90;99.90;;;;;;4956411;28;20495;-80
2022/09/26 08:01:19;;;;;;;6.15;3.15;;;10.90;99.90;;;;;;4955550;29;20051;-79
2022/09/26 08:03:46;;;;;;;5.78;2.85;;;10.90;99.90;;;;;;4955716;29;20050;-79
2022/09/26 08:06:16;;;;;;;7.45;3.10;;;11.30;99.90;;;;;;4956171;28;20079;-80
2022/09/26 08:08:42;;;;;;;5.70;3.13;;;10.90;99.90;;;;;;4939599;29;20098;-78
2022/09/26 08:11:15;;;;;;;5.85;2.97;;;10.90;99.90;;;;;;4956145;28;20059;-77
2022/09/26 08:13:44;;;;;;;7.75;3.10;;;10.90;99.90;;;;;;4956085;28;20047;-78
2022/09/26 08:16:11;;;;;;;6.43;3.15;;;10.90;99.90;;;;;;4955971;28;20506;-82
2022/09/26 08:18:37;;;;;;;5.53;3.38;;;10.90;99.90;;;;;;4956094;28;20039;-80
2022/09/26 08:21:04;;;;;;;6.05;3.17;;;10.80;99.90;;;;;;4956092;28;20130;-80
2022/09/26 08:23:31;;;;;;;5.68;3.28;;;10.90;99.90;;;;;;4955809;28;20058;-80
2022/09/26 08:25:57;;;;;;;5.80;3.60;;;10.80;99.90;;;;;;4955607;28;20468;-82
2022/09/26 08:28:25;;;;;;;6.55;3.20;;;10.80;99.90;;;;;;4955919;28;20050;-79
2022/09/26 08:30:51;;;;;;;6.57;3.35;;;10.90;99.90;;;;;;4955897;28;20475;-79
2022/09/26 08:33:17;;;;;;;5.13;3.30;;;10.90;99.90;;;;;;4955187;29;20082;-80
2022/09/26 08:35:44;;;;;;;4.03;2.80;;;10.90;99.90;;;;;;4955897;28;20456;-77
2022/09/26 08:38:09;;;;;;;7.65;3.53;;;10.90;99.90;;;;;;4955667;28;20051;-80
2022/09/26 08:40:58;;;;;;;5.18;3.38;;;11.00;99.90;;;;;;4954339;29;20055;-80
2022/09/26 08:43:51;;;;;;;6.68;2.85;;;11.10;99.90;;;;;;4956014;28;20061;-81
2022/09/26 08:46:46;;;;;;;7.35;3.00;;;11.20;99.90;;;;;;4955753;28;20043;-79
2022/09/26 08:49:24;;;;;;;5.00;2.72;;;11.30;99.90;;;;;;4955640;28;20534;-80
2022/09/26 08:51:52;;;;;;;6.75;3.33;;;11.30;99.90;;;;;;4955648;28;20084;-81
2022/09/26 08:54:40;;;;;;;6.97;2.85;;;11.90;99.90;;;;;;4955615;28;20180;-80
2022/09/26 08:57:23;;;;;;;6.85;3.00;;;11.40;99.90;;;;;;4956049;29;20050;-78
2022/09/26 08:59:50;;;;;;;5.82;2.97;;;11.50;99.90;;;;;;4955890;28;20094;-81
2022/09/26 09:02:26;;;;;;;5.07;2.90;;;11.50;99.90;;;;;;4955527;28;20122;-83
2022/09/26 09:04:56;;;;;;;8.52;3.30;;;11.50;99.90;;;;;;4959215;28;20535;-80
2022/09/26 09:07:24;;;;;;;9.40;3.28;;;11.50;99.90;;;;;;4959374;28;20090;-78
2022/09/26 09:09:53;;;;;;;9.73;3.08;;;12.10;99.90;;;;;;4959341;28;20407;-82
2022/09/26 09:12:44;;;;;;;5.03;2.75;;;11.50;99.90;;;;;;4959200;28;20053;-81
2022/09/26 09:15:27;;;;;;;7.88;3.03;;;11.50;99.90;;;;;;4959283;29;20047;-81
2022/09/26 09:18:12;;;;;;;6.70;3.28;;;11.60;99.90;;;;;;4959240;28;20054;-80
2022/09/26 09:20:55;;;;;;;6.03;2.88;;;11.60;99.90;;;;;;4959687;28;20488;-79
2022/09/26 09:23:39;;;;;;;5.72;3.08;;;11.70;99.90;;;;;;4959372;28;20143;-78
2022/09/26 09:26:43;;;;;;;4.57;2.88;;;11.70;99.90;;;;;;4959117;28;20102;-78
2022/09/26 09:29:23;;;;;;;5.22;3.28;;;11.70;99.90;;;;;;4959021;28;20101;-81
2022/09/26 09:31:49;;;;;;;4.97;3.25;;;11.80;99.90;;;;;;4959148;29;20050;-82
2022/09/26 09:34:26;;;;;;;5.72;3.20;;;11.90;99.90;;;;;;4959009;29;20051;-80
2022/09/26 09:36:57;;;;;;;6.35;2.95;;;12.00;99.90;;;;;;4959398;28;20089;-81
2022/09/26 09:39:36;;;;;;;4.68;3.28;;;11.90;99.90;;;;;;4958929;28;20113;-80
2022/09/26 09:42:15;;;;;;;6.43;2.92;;;11.90;99.90;;;;;;4959053;28;20043;-82
2022/09/26 09:44:45;;;;;;;4.60;2.83;;;11.90;99.90;;;;;;4958883;29;20039;-80
2022/09/26 09:47:16;;;;;;;6.57;3.42;;;11.90;99.90;;;;;;4957567;29;20051;-83
2022/09/26 09:49:43;;;;;;;7.32;3.53;;;11.90;99.90;;;;;;4958943;28;20184;-80
2022/09/26 09:52:27;;;;;;;9.57;3.70;;;11.90;99.90;;;;;;4958565;28;20476;-78
2022/09/26 09:55:14;;;;;;;7.57;3.25;;;11.80;99.90;;;;;;4958577;29;20087;-78
2022/09/26 09:57:48;;;;;;;4.60;2.88;;;11.80;99.90;;;;;;4958433;29;20055;-82
2022/09/26 10:00:21;;;;;;;4.30;2.83;;;11.80;99.90;;;;;;4958442;29;20141;-78
2022/09/26 10:03:01;;;;;;;4.97;3.13;;;11.80;99.90;;;;;;4958200;28;20050;-77
2022/09/26 10:05:43;;;;;;;10.30;3.33;;;11.70;99.90;;;;;;4958579;28;20043;-81
2022/09/26 10:08:18;;;;;;;9.60;3.20;;;11.70;99.90;;;;;;4958814;28;20058;-83
2022/09/26 10:11:11;;;;;;;7.03;3.20;;;11.70;99.90;;;;;;4958647;28;20048;-79
2022/09/26 10:13:42;;;;;;;5.20;3.17;;;11.70;99.90;;;;;;4958438;28;20043;-81
2022/09/26 10:16:10;;;;;;;7.10;3.50;;;11.70;99.90;;;;;;4957423;28;20082;-80
2022/09/26 10:18:55;;;;;;;6.38;3.22;;;11.60;99.90;;;;;;4958182;28;20047;-77
2022/09/26 10:21:27;;;;;;;6.40;3.63;;;11.60;99.90;;;;;;4957891;28;20043;-76
2022/09/26 10:23:52;;;;;;;6.32;3.70;;;11.60;99.90;;;;;;4957783;28;20538;-76
2022/09/26 10:26:33;;;;;;;7.60;3.72;;;11.60;99.90;;;;;;4958064;28;20055;-81
2022/09/26 10:29:06;;;;;;;6.50;3.50;;;12.10;99.90;;;;;;4957915;28;20510;-77
2022/09/26 10:31:37;;;;;;;7.03;3.78;;;11.60;99.90;;;;;;4958318;28;20077;-79
2022/09/26 10:34:26;;;;;;;7.93;4.03;;;11.60;99.90;;;;;;4957148;28;20509;-79
2022/09/26 10:36:52;;;;;;;8.02;3.88;;;11.60;99.90;;;;;;4957837;28;20051;-79
2022/09/26 10:42:19;;;;;;;7.13;3.22;;;11.60;99.90;;;;;;4957675;28;20398;-82
2022/09/26 10:44:47;;;;;;;7.53;4.10;;;11.50;99.90;;;;;;4957994;28;20098;-79
2022/09/26 10:47:20;;;;;;;6.57;4.13;;;11.50;99.90;;;;;;4957700;28;20444;-82
2022/09/26 10:49:54;;;;;;;6.25;4.28;;;11.50;99.90;;;;;;4957590;28;20051;-82
2022/09/26 10:52:35;;;;;;;8.57;3.85;;;11.50;99.90;;;;;;4957941;28;20479;-80
2022/09/26 10:55:10;;;;;;;8.88;4.13;;;11.50;99.90;;;;;;4957495;29;20050;-81
2022/09/26 10:57:44;;;;;;;8.20;4.07;;;11.50;99.90;;;;;;4957513;28;20094;-80
2022/09/26 11:00:17;;;;;;;6.18;3.88;;;11.50;99.90;;;;;;4957300;28;20082;-80
2022/09/26 11:02:46;;;;;;;7.47;3.65;;;11.50;99.90;;;;;;4957681;28;20395;-79
2022/09/26 11:08:02;;;;;;;;;;;11.50;99.90;;;;;;4957689;28;20094;-80
2022/09/26 11:10:31;;;;;;;6.13;3.28;;;11.60;99.90;;;;;;4957005;28;19949;-78
2022/09/26 11:13:01;;;;;;;5.18;3.13;;;11.60;99.90;;;;;;4957173;28;20055;-79
2022/09/26 11:15:28;;;;;;;5.97;3.67;;;11.60;99.90;;;;;;4957144;28;20062;-80
2022/09/26 11:17:54;;;;;;;5.80;3.50;;;11.50;99.90;;;;;;4957123;28;20074;-77
2022/09/26 11:20:49;;;;;;;6.55;4.00;;;11.60;99.90;;;;;;4956672;28;20523;-77
2022/09/26 11:23:53;;;;;;;11.55;4.20;;;11.50;99.90;;;;;;4956814;28;20049;-82
2022/09/26 11:26:47;;;;;;;8.20;4.57;;;11.50;99.90;;;;;;4952925;28;20105;-80
2022/09/26 11:29:37;;;;;;;7.80;4.38;;;11.50;99.90;;;;;;4956909;28;20058;-80
2022/09/26 11:32:04;;;;;;;7.20;4.53;;;11.60;99.90;;;;;;4957231;29;20074;-79
2022/09/26 11:34:32;;;;;;;7.82;3.97;;;11.50;99.90;;;;;;4957102;29;20059;-78
2022/09/26 11:37:36;;;;;;;8.10;4.68;;;11.50;99.90;;;;;;4956424;28;20537;-81
2022/09/26 11:40:32;;;;;;;8.10;3.70;;;11.50;99.90;;;;;;4956753;28;20149;-83
2022/09/26 11:43:12;;;;;;;7.43;4.78;;;11.50;99.90;;;;;;4956196;29;20487;-80
2022/09/26 11:46:02;;;;;;;8.07;4.80;;;11.50;99.90;;;;;;4956281;29;20495;-80
2022/09/26 11:49:09;;;;;;;8.35;5.05;;;11.50;99.90;;;;;;4956490;28;20047;-78
2022/09/26 11:51:41;;;;;;;8.75;4.32;;;11.60;99.90;;;;;;4955536;29;20114;-81
2022/09/26 11:54:32;;;;;;;5.82;4.05;;;11.50;99.90;;;;;;4956374;29;20083;-78
2022/09/26 11:57:00;;;;;;;6.80;3.97;;;11.50;99.90;;;;;;4956373;28;20051;-81
2022/09/26 11:59:53;;;;;;;6.45;4.22;;;11.50;99.90;;;;;;4956388;29;20064;-79
2022/09/26 12:02:41;;;;;;;7.93;4.43;;;11.60;99.90;;;;;;4956239;28;20130;-81
2022/09/26 12:05:28;;;;;;;9.18;4.68;;;11.60;99.90;;;;;;4955241;29;20053;-81
2022/09/26 12:08:01;;;;;;;9.00;4.25;;;11.60;99.90;;;;;;4956258;28;20062;-79
2022/09/26 12:10:45;;;;;;;8.45;4.50;;;12.00;99.90;;;;;;4956285;28;20590;-78
2022/09/26 12:13:17;;;;;;;7.93;4.22;;;11.70;99.90;;;;;;4956077;29;20094;-81
2022/09/26 12:16:03;;;;;;;8.98;4.22;;;11.70;99.90;;;;;;4956469;28;20039;-77
2022/09/26 12:18:57;;;;;;;6.57;4.13;;;11.80;99.90;;;;;;4954488;29;20062;-79
2022/09/26 12:21:25;;;;;;;6.90;3.80;;;11.80;99.90;;;;;;4955608;29;20562;-79
2022/09/26 12:23:55;;;;;;;7.05;4.07;;;11.80;99.90;;;;;;4955801;29;20046;-80
2022/09/26 12:26:29;;;;;;;4.97;3.92;;;11.80;99.90;;;;;;4956151;28;20055;-79
2022/09/26 12:29:16;;;;;;;7.13;3.50;;;11.80;99.90;;;;;;4955921;29;20047;-78
2022/09/26 12:31:50;;;;;;;5.80;3.63;;;11.80;99.90;;;;;;4955866;28;20047;-77
2022/09/26 12:34:37;;;;;;;5.70;3.58;;;11.80;99.90;;;;;;4955857;29;20089;-79
2022/09/26 12:37:13;;;;;;;5.90;2.72;;;11.90;99.90;;;;;;4955816;28;20055;-82
2022/09/26 12:39:53;;;;;;;4.85;2.75;;;11.80;99.90;;;;;;4955568;28;20059;-80
2022/09/26 12:42:44;;;;;;;5.63;2.50;;;11.80;99.90;;;;;;4955647;28;20061;-79
2022/09/26 12:45:30;;;;;;;3.70;2.47;;;11.80;99.90;;;;;;4956192;28;20095;-78
2022/09/26 12:48:14;;;;;;;4.70;2.97;;;11.80;99.90;;;;;;4955949;29;20051;-80
2022/09/26 12:50:48;;;;;;;4.85;2.53;;;11.80;99.90;;;;;;4955698;29;20567;-77
2022/09/26 12:53:35;;;;;;;4.13;2.83;;;11.80;99.90;;;;;;4955587;29;20047;-80
2022/09/26 12:56:10;;;;;;;2.70;2.20;;;11.80;99.90;;;;;;4955718;28;20047;-80
2022/09/26 12:59:12;;;;;;;3.67;2.40;;;11.80;99.90;;;;;;4954700;29;20082;-78
2022/09/26 13:02:07;;;;;;;3.78;2.22;;;11.80;99.90;;;;;;4954605;29;20067;-79
2022/09/26 13:05:03;;;;;;;3.90;2.50;;;11.80;99.90;;;;;;4955484;28;20547;-80
2022/09/26 13:07:54;;;;;;;6.45;3.00;;;11.80;99.90;;;;;;4955249;28;20408;-81
2022/09/26 13:10:52;;;;;;;3.63;2.60;;;11.80;99.90;;;;;;4955459;29;20047;-78
2022/09/26 13:13:47;;;;;;;3.92;2.58;;;11.80;99.90;;;;;;4955529;29;20051;-81
2022/09/26 13:16:24;;;;;;;2.83;2.17;;;11.90;99.90;;;;;;4955394;28;20086;-79
2022/09/26 13:18:55;;;;;;;4.72;2.40;;;11.90;99.90;;;;;;4955802;28;20130;-82
2022/09/26 13:21:38;;;;;;;2.45;2.10;;;11.90;99.90;;;;;;4955738;28;20051;-79
2022/09/26 13:24:18;;;;;;;6.20;2.25;;;11.90;99.90;;;;;;4955524;28;20047;-81
2022/09/26 13:26:51;;;;;;;3.13;2.22;;;11.90;99.90;;;;;;4955365;28;20058;-81
2022/09/26 13:29:25;;;;;;;2.47;2.10;;;12.10;99.90;;;;;;4955071;28;20558;-79
2022/09/26 13:32:13;;;;;;;3.05;2.08;;;11.90;99.90;;;;;;4955714;28;20174;-81
2022/09/26 13:34:50;;;;;;;2.95;1.92;;;11.80;99.90;;;;;;4955336;28;20083;-80